createdAt,value
2018-08-18T00:01:27.027Z,20.35
2018-08-18T00:04:37.068Z,20.27
2018-08-18T00:07:11.726Z,20.20
2018-08-18T00:09:46.001Z,20.17
2018-08-18T00:12:25.880Z,20.22
2018-08-18T00:15:00.811Z,20.16
2018-08-18T00:17:36.077Z,20.14
2018-08-18T00:20:12.874Z,20.14
2018-08-18T00:22:47.604Z,20.09
2018-08-18T00:25:22.039Z,20.06
2018-08-18T00:27:56.770Z,19.97
2018-08-18T00:30:31.523Z,19.82
2018-08-18T00:33:06.575Z,19.80
2018-08-18T00:35:41.517Z,19.85
2018-08-18T00:38:16.607Z,19.89
2018-08-18T00:40:51.084Z,19.80
2018-08-18T00:43:25.968Z,19.80
2018-08-18T00:46:00.815Z,19.83
2018-08-18T00:48:35.730Z,19.82
2018-08-18T00:51:10.263Z,19.83
2018-08-18T00:53:46.359Z,19.74
2018-08-18T00:56:21.136Z,19.81
2018-08-18T00:58:56.628Z,19.76
2018-08-18T01:01:30.975Z,19.83
2018-08-18T01:04:08.560Z,19.79
2018-08-18T01:06:43.572Z,19.80
2018-08-18T01:09:17.909Z,19.77
2018-08-18T01:11:52.816Z,19.75
2018-08-18T01:14:28.148Z,19.77
2018-08-18T01:17:02.662Z,19.83
2018-08-18T01:19:37.314Z,19.82
2018-08-18T01:22:12.208Z,19.71
2018-08-18T01:24:47.139Z,19.63
2018-08-18T01:27:21.632Z,19.62
2018-08-18T01:30:01.621Z,19.64
2018-08-18T01:32:35.940Z,19.62
2018-08-18T01:35:11.270Z,19.64
2018-08-18T01:37:45.833Z,19.53
2018-08-18T01:40:20.275Z,19.57
2018-08-18T01:42:54.681Z,19.55
2018-08-18T01:45:29.136Z,19.56
2018-08-18T01:48:04.364Z,19.50
2018-08-18T01:50:38.836Z,19.50
2018-08-18T01:53:13.401Z,19.52
2018-08-18T01:55:47.850Z,19.46
2018-08-18T01:58:22.991Z,19.45
2018-08-18T02:00:57.882Z,19.46
2018-08-18T02:03:32.955Z,19.44
2018-08-18T02:06:07.668Z,19.40
2018-08-18T02:08:55.168Z,19.38
2018-08-18T02:11:30.240Z,19.32
2018-08-18T02:14:05.040Z,19.25
2018-08-18T02:16:40.027Z,19.19
2018-08-18T02:19:14.557Z,19.12
2018-08-18T02:21:49.073Z,19.19
2018-08-18T02:24:23.388Z,19.27
2018-08-18T02:26:57.724Z,19.33
2018-08-18T02:29:32.665Z,19.31
2018-08-18T02:32:17.330Z,19.30
2018-08-18T02:34:51.832Z,19.23
2018-08-18T02:37:27.294Z,19.17
2018-08-18T02:40:02.374Z,19.15
2018-08-18T02:42:37.565Z,19.18
2018-08-18T02:45:13.944Z,19.14
2018-08-18T02:47:49.285Z,19.17
2018-08-18T02:50:24.039Z,19.16
2018-08-18T02:52:58.507Z,19.16
2018-08-18T02:55:33.375Z,19.14
2018-08-18T02:58:08.181Z,19.09
2018-08-18T03:00:43.303Z,19.07
2018-08-18T03:03:18.378Z,19.09
2018-08-18T03:05:53.459Z,19.06
2018-08-18T03:08:28.025Z,19.06
2018-08-18T03:11:02.896Z,19.06
2018-08-18T03:13:37.244Z,19.05
2018-08-18T03:16:12.440Z,19.00
2018-08-18T03:18:56.276Z,18.94
2018-08-18T03:21:36.096Z,18.89
2018-08-18T03:24:12.561Z,18.87
2018-08-18T03:26:48.731Z,18.82
2018-08-18T03:29:24.496Z,18.78
2018-08-18T03:31:59.688Z,18.76
2018-08-18T03:34:34.540Z,18.72
2018-08-18T03:37:24.761Z,18.70
2018-08-18T03:39:59.956Z,18.68
2018-08-18T03:42:41.912Z,18.62
2018-08-18T03:45:16.492Z,18.62
2018-08-18T03:47:51.115Z,18.58
2018-08-18T03:50:46.671Z,18.55
2018-08-18T03:53:21.189Z,18.52
2018-08-18T03:55:55.942Z,18.46
2018-08-18T03:58:40.248Z,18.46
2018-08-18T04:01:14.997Z,18.48
2018-08-18T04:03:49.544Z,18.45
2018-08-18T04:06:24.485Z,18.43
2018-08-18T04:08:59.229Z,18.41
2018-08-18T04:11:34.025Z,18.42
2018-08-18T04:14:08.800Z,18.43
2018-08-18T04:16:48.140Z,18.41
2018-08-18T04:19:22.564Z,18.43
2018-08-18T04:21:57.185Z,18.45
2018-08-18T04:24:36.366Z,18.42
2018-08-18T04:27:11.320Z,18.42
2018-08-18T04:29:45.932Z,18.47
2018-08-18T04:32:20.788Z,18.47
2018-08-18T04:34:55.543Z,18.49
2018-08-18T04:37:30.016Z,18.52
2018-08-18T04:40:04.912Z,18.47
2018-08-18T04:42:39.576Z,18.53
2018-08-18T04:45:15.668Z,18.55
2018-08-18T04:47:50.195Z,18.60
2018-08-18T04:50:25.098Z,18.56
2018-08-18T04:52:59.738Z,18.58
2018-08-18T04:55:34.228Z,18.64
2018-08-18T04:58:08.938Z,18.68
2018-08-18T05:00:43.280Z,18.78
2018-08-18T05:03:17.837Z,18.81
2018-08-18T05:05:52.564Z,18.91
2018-08-18T05:08:28.304Z,18.95
2018-08-18T05:11:02.795Z,19.05
2018-08-18T05:13:37.720Z,19.10
2018-08-18T05:16:12.381Z,19.12
2018-08-18T05:18:47.029Z,19.16
2018-08-18T05:21:23.693Z,19.28
2018-08-18T05:24:02.861Z,19.31
2018-08-18T05:26:37.641Z,19.36
2018-08-18T05:29:12.341Z,19.35
2018-08-18T05:31:46.690Z,19.48
2018-08-18T05:34:21.400Z,19.51
2018-08-18T05:36:56.061Z,19.58
2018-08-18T05:39:31.108Z,19.64
2018-08-18T05:42:05.901Z,19.70
2018-08-18T05:44:41.764Z,19.75
2018-08-18T05:47:16.452Z,19.81
2018-08-18T05:49:51.140Z,19.83
2018-08-18T05:52:25.825Z,19.87
2018-08-18T05:55:00.831Z,20.00
2018-08-18T05:57:35.452Z,20.08
2018-08-18T06:00:16.456Z,20.25
2018-08-18T06:02:56.912Z,20.36
2018-08-18T06:05:32.321Z,20.53
2018-08-18T06:08:06.966Z,20.81
2018-08-18T06:10:41.446Z,21.11
2018-08-18T06:13:22.168Z,21.22
2018-08-18T06:16:09.082Z,21.31
2018-08-18T06:18:44.672Z,21.37
2018-08-18T06:21:19.294Z,21.41
2018-08-18T06:23:53.926Z,21.39
2018-08-18T06:26:28.772Z,21.48
2018-08-18T06:29:03.380Z,21.55
2018-08-18T06:32:10.679Z,21.58
2018-08-18T06:34:45.591Z,21.64
2018-08-18T06:37:25.336Z,21.76
2018-08-18T06:40:00.488Z,21.71
2018-08-18T06:42:38.728Z,21.68
2018-08-18T06:45:16.516Z,21.67
2018-08-18T06:47:51.502Z,21.70
2018-08-18T06:50:30.983Z,21.67
2018-08-18T06:53:05.528Z,21.63
2018-08-18T06:55:40.458Z,21.70
2018-08-18T06:58:14.745Z,21.64
2018-08-18T07:00:49.213Z,21.74
2018-08-18T07:03:38.825Z,21.84
2018-08-18T07:06:23.313Z,21.96
2018-08-18T07:08:58.960Z,21.96
2018-08-18T07:11:33.612Z,21.94
2018-08-18T07:14:07.978Z,22.11
2018-08-18T07:16:42.633Z,22.28
2018-08-18T07:19:17.364Z,22.41
2018-08-18T07:21:52.160Z,22.53
2018-08-18T07:24:26.669Z,22.66
2018-08-18T07:27:01.111Z,22.88
2018-08-18T07:29:46.765Z,22.99
2018-08-18T07:32:21.264Z,22.98
2018-08-18T07:34:55.585Z,23.13
2018-08-18T07:37:30.309Z,23.22
2018-08-18T07:40:07.207Z,23.50
2018-08-18T07:42:43.252Z,23.64
2018-08-18T07:45:18.779Z,23.59
2018-08-18T07:47:57.296Z,23.59
2018-08-18T07:50:32.914Z,23.48
2018-08-18T07:53:08.288Z,23.56
2018-08-18T07:55:45.353Z,23.61
2018-08-18T07:58:22.496Z,23.65
2018-08-18T08:00:57.521Z,23.59
2018-08-18T08:03:32.389Z,23.74
2018-08-18T08:06:06.781Z,23.78
2018-08-18T08:08:49.029Z,23.61
2018-08-18T08:11:25.008Z,23.73
2018-08-18T08:13:59.640Z,23.76
2018-08-18T08:16:34.379Z,23.82
2018-08-18T08:19:08.893Z,23.97
2018-08-18T08:21:43.977Z,24.06
2018-08-18T08:24:18.618Z,23.98
2018-08-18T08:26:53.456Z,24.08
2018-08-18T08:29:32.204Z,24.47
2018-08-18T08:32:08.729Z,24.56
2018-08-18T08:34:44.936Z,24.82
2018-08-18T08:37:19.660Z,24.98
2018-08-18T08:39:54.860Z,25.03
2018-08-18T08:42:29.507Z,24.93
2018-08-18T08:45:03.932Z,24.94
2018-08-18T08:47:38.470Z,24.97
2018-08-18T08:50:15.960Z,25.16
2018-08-18T08:52:57.274Z,25.30
2018-08-18T08:55:32.612Z,24.85
2018-08-18T08:58:06.920Z,24.87
2018-08-18T09:00:42.198Z,25.13
2018-08-18T09:03:16.933Z,25.56
2018-08-18T09:05:51.224Z,26.12
2018-08-18T09:08:25.910Z,25.90
2018-08-18T09:11:00.355Z,25.95
2018-08-18T09:13:35.028Z,25.95
2018-08-18T09:16:10.411Z,26.15
2018-08-18T09:18:45.064Z,26.49
2018-08-18T09:21:20.152Z,26.86
2018-08-18T09:23:54.781Z,26.99
2018-08-18T09:26:29.459Z,27.18
2018-08-18T09:29:04.880Z,27.22
2018-08-18T09:31:40.259Z,27.23
2018-08-18T09:34:15.160Z,27.35
2018-08-18T09:36:50.264Z,27.04
2018-08-18T09:39:29.327Z,26.96
2018-08-18T09:42:09.349Z,27.27
2018-08-18T09:44:46.144Z,27.43
2018-08-18T09:47:20.770Z,27.43
2018-08-18T09:49:55.452Z,27.38
2018-08-18T09:52:30.247Z,27.19
2018-08-18T09:55:04.780Z,27.04
2018-08-18T09:57:39.520Z,25.79
2018-08-18T10:00:14.928Z,25.79
2018-08-18T10:02:50.136Z,25.91
2018-08-18T10:05:24.770Z,25.78
2018-08-18T10:07:59.561Z,25.83
2018-08-18T10:10:35.476Z,25.57
2018-08-18T10:13:10.164Z,25.74
2018-08-18T10:15:44.841Z,25.86
2018-08-18T10:18:19.865Z,26.09
2018-08-18T10:20:54.335Z,26.20
2018-08-18T10:23:29.293Z,26.22
2018-08-18T10:26:04.558Z,26.25
2018-08-18T10:28:40.328Z,26.14
2018-08-18T10:31:15.008Z,25.77
2018-08-18T10:33:50.183Z,25.88
2018-08-18T10:36:24.988Z,26.33
2018-08-18T10:38:59.745Z,26.19
2018-08-18T10:41:39.021Z,26.10
2018-08-18T10:44:14.300Z,25.90
2018-08-18T10:46:58.684Z,26.01
2018-08-18T10:49:44.953Z,26.06
2018-08-18T10:52:31.824Z,26.26
2018-08-18T10:55:09.161Z,26.63
2018-08-18T10:57:54.167Z,26.68
2018-08-18T11:00:30.173Z,27.03
2018-08-18T11:03:05.824Z,27.12
2018-08-18T11:05:40.340Z,27.28
2018-08-18T11:08:14.842Z,27.43
2018-08-18T11:10:49.452Z,27.62
2018-08-18T11:13:23.916Z,28.63
2018-08-18T11:15:58.381Z,28.90
2018-08-18T11:18:33.268Z,29.08
2018-08-18T11:21:07.742Z,29.66
2018-08-18T11:23:42.636Z,30.07
2018-08-18T11:26:17.269Z,29.55
2018-08-18T11:28:51.911Z,29.01
2018-08-18T11:31:26.597Z,28.69
2018-08-18T11:34:00.965Z,28.41
2018-08-18T11:36:35.268Z,28.83
2018-08-18T11:39:09.746Z,29.33
2018-08-18T11:41:44.647Z,29.62
2018-08-18T11:44:19.048Z,29.53
2018-08-18T11:46:53.748Z,29.52
2018-08-18T11:49:28.459Z,29.09
2018-08-18T11:52:02.885Z,28.63
2018-08-18T11:54:37.663Z,28.28
2018-08-18T11:57:12.320Z,27.96
2018-08-18T11:59:46.709Z,27.50
2018-08-18T12:02:21.529Z,27.56
2018-08-18T12:04:55.912Z,28.21
2018-08-18T12:07:30.760Z,28.75
2018-08-18T12:10:05.388Z,29.54
2018-08-18T12:12:40.285Z,30.20
2018-08-18T12:15:14.634Z,30.79
2018-08-18T12:17:56.860Z,31.29
2018-08-18T12:20:31.752Z,30.75
2018-08-18T12:23:06.813Z,30.31
2018-08-18T12:25:41.711Z,30.31
2018-08-18T12:28:16.365Z,30.60
2018-08-18T12:30:51.025Z,30.57
2018-08-18T12:33:25.824Z,30.32
2018-08-18T12:36:00.875Z,30.22
2018-08-18T12:38:36.049Z,30.54
2018-08-18T12:41:10.706Z,30.37
2018-08-18T12:43:48.306Z,30.34
2018-08-18T12:46:24.536Z,30.41
2018-08-18T12:48:59.315Z,30.65
2018-08-18T12:51:34.265Z,30.18
2018-08-18T12:54:09.063Z,30.13
2018-08-18T12:56:47.155Z,30.28
2018-08-18T12:59:21.851Z,30.32
2018-08-18T13:01:56.233Z,30.67
2018-08-18T13:04:30.821Z,31.09
2018-08-18T13:07:09.443Z,30.62
2018-08-18T13:09:55.513Z,30.47
2018-08-18T13:12:29.840Z,29.82
2018-08-18T13:15:04.524Z,29.55
2018-08-18T13:17:39.351Z,29.80
2018-08-18T13:20:18.813Z,30.41
2018-08-18T13:22:58.360Z,30.67
2018-08-18T13:25:33.314Z,31.00
2018-08-18T13:28:08.210Z,31.15
2018-08-18T13:30:42.890Z,31.07
2018-08-18T13:33:17.415Z,30.96
2018-08-18T13:35:52.066Z,31.15
2018-08-18T13:38:30.826Z,31.49
2018-08-18T13:41:05.722Z,31.40
2018-08-18T13:43:46.496Z,31.28
2018-08-18T13:46:31.036Z,31.29
2018-08-18T13:49:07.547Z,31.22
2018-08-18T13:51:47.255Z,31.42
2018-08-18T13:54:22.994Z,31.18
2018-08-18T13:56:58.349Z,31.32
2018-08-18T13:59:40.744Z,31.45
2018-08-18T14:02:16.658Z,31.51
2018-08-18T14:04:54.660Z,31.11
2018-08-18T14:07:29.320Z,31.19
2018-08-18T14:10:04.170Z,31.54
2018-08-18T14:12:44.150Z,31.55
2018-08-18T14:15:21.164Z,31.23
2018-08-18T14:18:01.612Z,30.97
2018-08-18T14:20:40.757Z,31.22
2018-08-18T14:23:15.804Z,31.27
2018-08-18T14:25:52.037Z,30.82
2018-08-18T14:28:27.201Z,30.58
2018-08-18T14:31:02.799Z,30.98
2018-08-18T14:33:38.084Z,31.41
2018-08-18T14:36:14.839Z,31.62
2018-08-18T14:38:50.294Z,31.93
2018-08-18T14:41:42.239Z,31.73
2018-08-18T14:44:27.847Z,31.93
2018-08-18T14:47:04.715Z,31.62
2018-08-18T14:52:28.501Z,30.90
2018-08-18T14:55:03.767Z,31.25
2018-08-18T14:57:45.895Z,31.40
2018-08-18T15:00:23.225Z,31.27
2018-08-18T15:03:00.140Z,30.97
2018-08-18T15:05:35.012Z,30.87
2018-08-18T15:08:09.792Z,30.79
2018-08-18T15:10:45.824Z,30.94
2018-08-18T15:13:20.570Z,30.84
2018-08-18T15:15:55.191Z,31.15
2018-08-18T15:18:30.584Z,31.26
2018-08-18T15:21:05.917Z,31.11
2018-08-18T15:23:40.696Z,31.35
2018-08-18T15:26:15.189Z,31.47
2018-08-18T15:28:49.633Z,31.50
2018-08-18T15:31:24.077Z,31.42
2018-08-18T15:33:58.737Z,31.33
2018-08-18T15:36:33.642Z,31.35
2018-08-18T15:39:11.865Z,31.52
2018-08-18T15:41:47.683Z,31.57
2018-08-18T15:44:24.768Z,31.67
2018-08-18T15:46:59.975Z,31.41
2018-08-18T15:49:35.055Z,31.29
2018-08-18T15:52:14.400Z,30.92
2018-08-18T15:54:50.159Z,30.85
2018-08-18T15:57:25.217Z,31.05
2018-08-18T15:59:59.480Z,30.69
2018-08-18T16:02:34.565Z,30.79
2018-08-18T16:05:12.478Z,30.77
2018-08-18T16:07:47.049Z,30.64
2018-08-18T16:10:33.728Z,30.64
2018-08-18T16:13:09.011Z,30.53
2018-08-18T16:15:43.558Z,30.46
2018-08-18T16:18:19.279Z,30.21
2018-08-18T16:20:56.897Z,30.08
2018-08-18T16:23:36.478Z,30.00
2018-08-18T16:26:12.865Z,30.07
2018-08-18T16:28:47.616Z,30.03
2018-08-18T16:31:22.124Z,30.12
2018-08-18T16:33:57.162Z,29.94
2018-08-18T16:36:37.240Z,29.75
2018-08-18T16:39:12.419Z,29.68
2018-08-18T16:41:47.224Z,29.54
2018-08-18T16:44:21.604Z,29.57
2018-08-18T16:46:56.245Z,29.45
2018-08-18T16:52:18.861Z,29.44
2018-08-18T16:54:54.783Z,29.30
2018-08-18T16:57:29.461Z,29.18
2018-08-18T17:00:04.228Z,28.78
2018-08-18T17:02:39.347Z,28.66
2018-08-18T17:05:14.343Z,28.50
2018-08-18T17:07:48.949Z,28.32
2018-08-18T17:10:23.878Z,28.20
2018-08-18T17:12:59.552Z,28.28
2018-08-18T17:15:34.320Z,28.12
2018-08-18T17:18:09.280Z,28.02
2018-08-18T17:20:48.112Z,27.96
2018-08-18T17:23:22.500Z,27.89
2018-08-18T17:25:57.345Z,27.78
2018-08-18T17:28:32.901Z,27.74
2018-08-18T17:31:07.797Z,27.56
2018-08-18T17:33:42.212Z,27.44
2018-08-18T17:36:16.625Z,27.32
2018-08-18T17:38:51.024Z,27.19
2018-08-18T17:41:26.048Z,27.06
2018-08-18T17:44:00.929Z,26.97
2018-08-18T17:46:38.977Z,26.86
2018-08-18T17:49:13.796Z,26.72
2018-08-18T17:52:05.304Z,26.57
2018-08-18T17:54:39.962Z,26.44
2018-08-18T17:57:14.307Z,26.31
2018-08-18T17:59:49.148Z,26.17
2018-08-18T18:02:24.531Z,26.09
2018-08-18T18:05:04.508Z,25.94
2018-08-18T18:07:39.056Z,25.86
2018-08-18T18:10:13.385Z,25.70
2018-08-18T18:12:48.249Z,25.62
2018-08-18T18:15:42.611Z,25.51
2018-08-18T18:18:18.879Z,25.35
2018-08-18T18:20:54.745Z,25.23
2018-08-18T18:23:29.596Z,25.17
2018-08-18T18:26:04.280Z,25.04
2018-08-18T18:28:38.749Z,24.97
2018-08-18T18:31:13.199Z,24.94
2018-08-18T18:33:52.038Z,24.86
2018-08-18T18:36:26.464Z,24.73
2018-08-18T18:39:00.994Z,24.64
2018-08-18T18:41:36.059Z,24.53
2018-08-18T18:44:10.612Z,24.34
2018-08-18T18:46:45.000Z,24.17
2018-08-18T18:49:30.814Z,24.04
2018-08-18T18:52:05.525Z,23.91
2018-08-18T18:54:40.614Z,23.80
2018-08-18T18:57:15.357Z,23.75
2018-08-18T18:59:55.801Z,23.67
2018-08-18T19:05:29.098Z,23.58
2018-08-18T19:08:09.810Z,23.49
2018-08-18T19:10:44.847Z,23.45
2018-08-18T19:13:19.658Z,23.40
2018-08-18T19:15:54.368Z,23.34
2018-08-18T19:18:29.550Z,23.29
2018-08-18T19:21:04.272Z,23.28
2018-08-18T19:23:38.982Z,23.18
2018-08-18T19:26:13.376Z,23.08
2018-08-18T19:28:48.114Z,23.05
2018-08-18T19:34:11.398Z,23.19
2018-08-18T19:36:57.113Z,23.25
2018-08-18T19:39:32.776Z,23.10
2018-08-18T19:42:21.951Z,23.05
2018-08-18T19:44:56.892Z,22.94
2018-08-18T19:47:38.403Z,22.91
2018-08-18T19:50:14.085Z,22.86
2018-08-18T19:52:57.595Z,22.83
2018-08-18T19:55:33.439Z,22.83
2018-08-18T19:58:08.316Z,22.78
2018-08-18T20:00:42.803Z,22.72
2018-08-18T20:03:18.777Z,22.64
2018-08-18T20:05:53.176Z,22.57
2018-08-18T20:08:28.374Z,22.49
2018-08-18T20:11:03.300Z,22.40
2018-08-18T20:13:38.088Z,22.36
2018-08-18T20:16:12.664Z,22.26
2018-08-18T20:18:47.358Z,22.14
2018-08-18T20:21:21.882Z,22.05
2018-08-18T20:23:56.541Z,22.04
2018-08-18T20:26:31.544Z,21.96
2018-08-18T20:29:13.178Z,21.89
2018-08-18T20:32:00.460Z,21.85
2018-08-18T20:34:35.050Z,21.80
2018-08-18T20:37:09.933Z,21.74
2018-08-18T20:39:44.823Z,21.70
2018-08-18T20:42:25.708Z,21.65
2018-08-18T20:45:02.767Z,21.61
2018-08-18T20:47:39.931Z,21.56
2018-08-18T20:50:22.583Z,21.56
2018-08-18T20:53:07.364Z,21.50
2018-08-18T20:55:45.163Z,21.51
2018-08-18T20:58:23.297Z,21.47
2018-08-18T21:00:58.445Z,21.44
2018-08-18T21:03:47.445Z,21.40
2018-08-18T21:06:22.425Z,21.41
2018-08-18T21:09:09.804Z,21.41
2018-08-18T21:11:44.340Z,21.37
2018-08-18T21:14:18.657Z,21.32
2018-08-18T21:16:53.453Z,21.30
2018-08-18T21:19:28.204Z,21.24
2018-08-18T21:22:03.322Z,21.17
2018-08-18T21:24:37.740Z,21.12
2018-08-18T21:27:11.993Z,21.05
2018-08-18T21:29:46.761Z,21.04
2018-08-18T21:32:22.401Z,21.00
2018-08-18T21:34:56.901Z,20.97
2018-08-18T21:37:31.368Z,20.97
2018-08-18T21:40:07.293Z,20.93
2018-08-18T21:42:42.548Z,20.93
2018-08-18T21:45:17.679Z,20.89
2018-08-18T21:47:52.192Z,20.89
2018-08-18T21:50:34.046Z,20.82
2018-08-18T21:53:08.611Z,20.81
2018-08-18T21:55:47.472Z,20.79
2018-08-18T21:58:24.981Z,20.79
2018-08-18T22:01:05.196Z,20.76
2018-08-18T22:03:39.628Z,20.66
2018-08-18T22:06:14.681Z,20.61
2018-08-18T22:08:49.152Z,20.62
2018-08-18T22:11:24.293Z,20.59
2018-08-18T22:13:58.932Z,20.54
2018-08-18T22:16:33.443Z,20.49
2018-08-18T22:19:08.249Z,20.44
2018-08-18T22:21:42.693Z,20.39
2018-08-18T22:26:51.251Z,20.36
2018-08-18T22:29:26.436Z,20.31
2018-08-18T22:32:10.424Z,20.33
2018-08-18T22:34:49.466Z,20.30
2018-08-18T22:37:25.729Z,20.25
2018-08-18T22:40:02.612Z,20.29
2018-08-18T22:42:36.936Z,20.21
2018-08-18T22:48:22.101Z,20.21
2018-08-18T22:50:56.737Z,20.17
2018-08-18T22:53:31.436Z,20.19
2018-08-18T22:56:15.343Z,20.17
2018-08-18T22:58:59.952Z,20.13
2018-08-18T23:01:39.980Z,20.08
2018-08-18T23:04:28.540Z,20.06
2018-08-18T23:07:03.832Z,20.09
2018-08-18T23:09:40.920Z,20.09
2018-08-18T23:12:16.299Z,20.15
2018-08-18T23:14:51.529Z,20.12
2018-08-18T23:17:33.630Z,20.13
2018-08-18T23:20:08.887Z,20.06
2018-08-18T23:22:53.597Z,20.00
2018-08-18T23:25:29.425Z,20.02
2018-08-18T23:28:04.229Z,20.02
2018-08-18T23:30:39.824Z,19.97
2018-08-18T23:33:14.535Z,19.95
2018-08-18T23:35:48.960Z,19.89
2018-08-18T23:38:23.828Z,19.88
2018-08-18T23:41:03.745Z,19.90
2018-08-18T23:43:38.508Z,19.91
2018-08-18T23:46:12.905Z,19.90
2018-08-18T23:48:47.461Z,19.83
2018-08-18T23:51:28.708Z,19.76
2018-08-18T23:54:08.368Z,19.69
2018-08-18T23:56:43.356Z,19.62
2018-08-18T23:59:17.694Z,19.57
